sensor_id;sensor_type;location;lat;lon;timestamp;temperature;humidity
43842;DHT22;29495;49.970;20.842;2023-09-19T00:00:23;19.50;1.00
43842;DHT22;29495;49.970;20.842;2023-09-19T00:02:57;19.50;1.00
43842;DHT22;29495;49.970;20.842;2023-09-19T00:05:25;19.60;1.00
43842;DHT22;29495;49.970;20.842;2023-09-19T00:07:57;19.60;1.00
43842;DHT22;29495;49.970;20.842;2023-09-19T00:10:27;19.70;1.00
43842;DHT22;29495;49.970;20.842;2023-09-19T00:12:58;19.70;1.00
43842;DHT22;29495;49.970;20.842;2023-09-19T00:19:29;19.90;1.00
43842;DHT22;29495;49.970;20.842;2023-09-19T00:22:10;20.00;1.00
43842;DHT22;29495;49.970;20.842;2023-09-19T00:24:39;20.10;1.00
43842;DHT22;29495;49.970;20.842;2023-09-19T00:27:06;20.10;1.00
43842;DHT22;29495;49.970;20.842;2023-09-19T00:29:34;20.10;1.00
43842;DHT22;29495;49.970;20.842;2023-09-19T00:32:00;20.10;1.00
43842;DHT22;29495;49.970;20.842;2023-09-19T00:34:31;20.10;1.00
43842;DHT22;29495;49.970;20.842;2023-09-19T00:37:00;20.20;1.00
43842;DHT22;29495;49.970;20.842;2023-09-19T00:39:26;20.20;1.00
43842;DHT22;29495;49.970;20.842;2023-09-19T00:41:52;20.20;1.00
43842;DHT22;29495;49.970;20.842;2023-09-19T00:44:18;20.30;1.00
43842;DHT22;29495;49.970;20.842;2023-09-19T00:46:46;20.40;99.90
43842;DHT22;29495;49.970;20.842;2023-09-19T00:49:15;20.40;99.90
43842;DHT22;29495;49.970;20.842;2023-09-19T00:51:42;20.50;99.90
43842;DHT22;29495;49.970;20.842;2023-09-19T00:54:13;20.50;99.90
43842;DHT22;29495;49.970;20.842;2023-09-19T00:56:47;20.60;99.90
43842;DHT22;29495;49.970;20.842;2023-09-19T00:59:13;20.60;99.90
43842;DHT22;29495;49.970;20.842;2023-09-19T01:01:39;20.60;99.90
43842;DHT22;29495;49.970;20.842;2023-09-19T01:04:06;20.50;1.00
43842;DHT22;29495;49.970;20.842;2023-09-19T01:06:32;20.60;99.90
43842;DHT22;29495;49.970;20.842;2023-09-19T01:08:58;20.60;99.90
43842;DHT22;29495;49.970;20.842;2023-09-19T01:11:28;20.60;99.90
43842;DHT22;29495;49.970;20.842;2023-09-19T01:17:03;20.60;1.00
43842;DHT22;29495;49.970;20.842;2023-09-19T01:30:22;20.70;99.90
43842;DHT22;29495;49.970;20.842;2023-09-19T01:32:53;20.80;99.90
43842;DHT22;29495;49.970;20.842;2023-09-19T01:35:19;20.90;99.90
43842;DHT22;29495;49.970;20.842;2023-09-19T01:38:03;20.80;99.90
43842;DHT22;29495;49.970;20.842;2023-09-19T01:41:12;20.80;99.90
43842;DHT22;29495;49.970;20.842;2023-09-19T01:43:59;20.80;99.90
43842;DHT22;29495;49.970;20.842;2023-09-19T01:51:51;20.90;99.90
43842;DHT22;29495;49.970;20.842;2023-09-19T01:54:26;21.00;99.90
43842;DHT22;29495;49.970;20.842;2023-09-19T01:57:04;20.90;99.90
43842;DHT22;29495;49.970;20.842;2023-09-19T02:00:03;20.90;99.90
43842;DHT22;29495;49.970;20.842;2023-09-19T02:02:45;21.00;99.90
43842;DHT22;29495;49.970;20.842;2023-09-19T02:05:13;21.00;99.90
43842;DHT22;29495;49.970;20.842;2023-09-19T02:07:48;21.00;99.90
43842;DHT22;29495;49.970;20.842;2023-09-19T02:10:16;21.00;99.90
43842;DHT22;29495;49.970;20.842;2023-09-19T02:12:43;20.90;99.90
43842;DHT22;29495;49.970;20.842;2023-09-19T02:15:09;20.90;99.90
43842;DHT22;29495;49.970;20.842;2023-09-19T02:17:35;20.90;99.90
43842;DHT22;29495;49.970;20.842;2023-09-19T02:20:02;20.90;99.90
43842;DHT22;29495;49.970;20.842;2023-09-19T02:22:29;20.90;99.90
43842;DHT22;29495;49.970;20.842;2023-09-19T02:24:55;20.90;99.90
43842;DHT22;29495;49.970;20.842;2023-09-19T02:27:24;21.00;99.90
43842;DHT22;29495;49.970;20.842;2023-09-19T02:29:51;21.00;99.90
43842;DHT22;29495;49.970;20.842;2023-09-19T02:32:17;21.00;99.90
43842;DHT22;29495;49.970;20.842;2023-09-19T02:34:43;21.00;99.90
43842;DHT22;29495;49.970;20.842;2023-09-19T02:37:10;20.90;99.90
43842;DHT22;29495;49.970;20.842;2023-09-19T02:39:42;21.00;99.90
43842;DHT22;29495;49.970;20.842;2023-09-19T02:42:08;20.80;99.90
43842;DHT22;29495;49.970;20.842;2023-09-19T02:45:06;20.80;99.90
43842;DHT22;29495;49.970;20.842;2023-09-19T02:47:51;20.80;99.90
43842;DHT22;29495;49.970;20.842;2023-09-19T03:04:54;20.50;1.00
43842;DHT22;29495;49.970;20.842;2023-09-19T03:13:14;20.40;1.00
43842;DHT22;29495;49.970;20.842;2023-09-19T03:15:42;20.40;1.00
43842;DHT22;29495;49.970;20.842;2023-09-19T03:18:14;20.40;1.00
43842;DHT22;29495;49.970;20.842;2023-09-19T03:20:43;20.40;1.00
43842;DHT22;29495;49.970;20.842;2023-09-19T03:23:10;20.30;1.00
43842;DHT22;29495;49.970;20.842;2023-09-19T03:25:36;20.20;1.00
43842;DHT22;29495;49.970;20.842;2023-09-19T03:28:03;20.10;1.00
43842;DHT22;29495;49.970;20.842;2023-09-19T03:30:48;20.10;1.00
43842;DHT22;29495;49.970;20.842;2023-09-19T03:34:03;20.00;1.00
43842;DHT22;29495;49.970;20.842;2023-09-19T03:37:46;20.00;1.00
43842;DHT22;29495;49.970;20.842;2023-09-19T03:40:34;20.00;7.30
43842;DHT22;29495;49.970;20.842;2023-09-19T03:43:14;19.90;30.60
43842;DHT22;29495;49.970;20.842;2023-09-19T03:45:49;19.80;52.70
43842;DHT22;29495;49.970;20.842;2023-09-19T03:48:22;19.80;52.20
43842;DHT22;29495;49.970;20.842;2023-09-19T03:50:53;19.80;55.80
43842;DHT22;29495;49.970;20.842;2023-09-19T03:53:22;19.80;74.70
43842;DHT22;29495;49.970;20.842;2023-09-19T03:55:48;19.70;98.50
43842;DHT22;29495;49.970;20.842;2023-09-19T03:58:16;19.80;71.60
43842;DHT22;29495;49.970;20.842;2023-09-19T04:00:42;19.70;99.10
43842;DHT22;29495;49.970;20.842;2023-09-19T04:03:08;19.70;79.60
43842;DHT22;29495;49.970;20.842;2023-09-19T04:05:36;19.70;56.40
43842;DHT22;29495;49.970;20.842;2023-09-19T04:08:02;19.70;82.20
43842;DHT22;29495;49.970;20.842;2023-09-19T04:10:29;19.80;72.40
43842;DHT22;29495;49.970;20.842;2023-09-19T04:12:56;19.70;70.10
43842;DHT22;29495;49.970;20.842;2023-09-19T04:15:51;19.70;90.00
43842;DHT22;29495;49.970;20.842;2023-09-19T04:18:23;19.70;97.40
43842;DHT22;29495;49.970;20.842;2023-09-19T04:21:02;19.60;49.70
43842;DHT22;29495;49.970;20.842;2023-09-19T04:23:46;19.60;40.90
43842;DHT22;29495;49.970;20.842;2023-09-19T04:26:37;19.70;57.50
43842;DHT22;29495;49.970;20.842;2023-09-19T04:29:03;19.70;27.20
43842;DHT22;29495;49.970;20.842;2023-09-19T04:31:34;19.90;41.10
43842;DHT22;29495;49.970;20.842;2023-09-19T04:34:04;19.90;30.00
43842;DHT22;29495;49.970;20.842;2023-09-19T04:36:30;20.00;18.20
43842;DHT22;29495;49.970;20.842;2023-09-19T04:38:56;19.80;76.30
43842;DHT22;29495;49.970;20.842;2023-09-19T04:41:22;19.80;43.00
43842;DHT22;29495;49.970;20.842;2023-09-19T04:43:49;19.90;26.70
43842;DHT22;29495;49.970;20.842;2023-09-19T04:46:16;19.90;23.90
43842;DHT22;29495;49.970;20.842;2023-09-19T04:48:43;19.90;25.40
43842;DHT22;29495;49.970;20.842;2023-09-19T04:51:27;20.00;5.00
43842;DHT22;29495;49.970;20.842;2023-09-19T04:54:04;20.00;11.70
43842;DHT22;29495;49.970;20.842;2023-09-19T05:02:35;20.00;1.00
43842;DHT22;29495;49.970;20.842;2023-09-19T05:05:01;20.00;1.00
43842;DHT22;29495;49.970;20.842;2023-09-19T05:07:27;19.90;1.00
43842;DHT22;29495;49.970;20.842;2023-09-19T05:09:53;20.00;1.00
43842;DHT22;29495;49.970;20.842;2023-09-19T05:12:19;19.90;1.00
43842;DHT22;29495;49.970;20.842;2023-09-19T05:14:45;20.10;1.00
43842;DHT22;29495;49.970;20.842;2023-09-19T05:17:11;20.10;1.00
43842;DHT22;29495;49.970;20.842;2023-09-19T05:19:39;19.90;1.00
43842;DHT22;29495;49.970;20.842;2023-09-19T05:22:05;20.00;1.00
43842;DHT22;29495;49.970;20.842;2023-09-19T05:24:32;19.90;1.00
43842;DHT22;29495;49.970;20.842;2023-09-19T05:26:58;19.90;1.00
43842;DHT22;29495;49.970;20.842;2023-09-19T05:29:25;19.90;1.00
43842;DHT22;29495;49.970;20.842;2023-09-19T05:31:51;20.00;1.00
43842;DHT22;29495;49.970;20.842;2023-09-19T05:34:17;19.80;1.00
43842;DHT22;29495;49.970;20.842;2023-09-19T05:36:43;19.70;1.00
43842;DHT22;29495;49.970;20.842;2023-09-19T05:39:09;19.80;1.00
43842;DHT22;29495;49.970;20.842;2023-09-19T05:41:36;19.80;1.00
43842;DHT22;29495;49.970;20.842;2023-09-19T05:44:03;19.80;1.00
43842;DHT22;29495;49.970;20.842;2023-09-19T05:46:29;19.80;1.00
43842;DHT22;29495;49.970;20.842;2023-09-19T05:48:56;19.70;1.00
43842;DHT22;29495;49.970;20.842;2023-09-19T05:51:24;19.70;1.00
43842;DHT22;29495;49.970;20.842;2023-09-19T05:53:54;19.70;1.00
43842;DHT22;29495;49.970;20.842;2023-09-19T05:56:20;19.70;1.00
43842;DHT22;29495;49.970;20.842;2023-09-19T05:58:46;19.70;1.00
43842;DHT22;29495;49.970;20.842;2023-09-19T06:01:12;19.70;1.00
43842;DHT22;29495;49.970;20.842;2023-09-19T06:03:39;19.70;1.00
43842;DHT22;29495;49.970;20.842;2023-09-19T06:06:05;19.70;1.00
43842;DHT22;29495;49.970;20.842;2023-09-19T06:08:32;19.80;1.00
43842;DHT22;29495;49.970;20.842;2023-09-19T06:10:59;19.80;1.00
43842;DHT22;29495;49.970;20.842;2023-09-19T06:13:28;19.90;1.00
43842;DHT22;29495;49.970;20.842;2023-09-19T06:21:46;20.00;1.00
43842;DHT22;29495;49.970;20.842;2023-09-19T06:24:12;20.00;1.00
43842;DHT22;29495;49.970;20.842;2023-09-19T06:26:38;20.00;1.00
43842;DHT22;29495;49.970;20.842;2023-09-19T06:29:04;20.10;1.00
43842;DHT22;29495;49.970;20.842;2023-09-19T06:31:33;20.10;1.00
43842;DHT22;29495;49.970;20.842;2023-09-19T06:33:59;20.20;1.00
43842;DHT22;29495;49.970;20.842;2023-09-19T06:36:25;20.30;1.00
43842;DHT22;29495;49.970;20.842;2023-09-19T06:38:51;20.30;1.00
43842;DHT22;29495;49.970;20.842;2023-09-19T06:41:18;20.40;1.00
43842;DHT22;29495;49.970;20.842;2023-09-19T06:43:44;20.30;1.00
43842;DHT22;29495;49.970;20.842;2023-09-19T06:46:10;20.50;1.00
43842;DHT22;29495;49.970;20.842;2023-09-19T06:48:36;20.50;1.00
43842;DHT22;29495;49.970;20.842;2023-09-19T06:51:02;20.60;1.00
43842;DHT22;29495;49.970;20.842;2023-09-19T06:53:33;20.60;1.00
43842;DHT22;29495;49.970;20.842;2023-09-19T06:56:02;20.80;1.00
43842;DHT22;29495;49.970;20.842;2023-09-19T06:58:37;20.70;1.00
43842;DHT22;29495;49.970;20.842;2023-09-19T07:01:04;20.60;1.00
43842;DHT22;29495;49.970;20.842;2023-09-19T07:03:30;20.70;1.00
43842;DHT22;29495;49.970;20.842;2023-09-19T07:05:56;20.70;1.00
43842;DHT22;29495;49.970;20.842;2023-09-19T07:08:22;20.70;1.00
43842;DHT22;29495;49.970;20.842;2023-09-19T07:10:51;20.80;1.00
43842;DHT22;29495;49.970;20.842;2023-09-19T07:13:19;20.80;1.00
43842;DHT22;29495;49.970;20.842;2023-09-19T07:15:48;20.80;1.00
43842;DHT22;29495;49.970;20.842;2023-09-19T07:18:18;20.70;1.00
43842;DHT22;29495;49.970;20.842;2023-09-19T07:20:45;20.60;1.00
43842;DHT22;29495;49.970;20.842;2023-09-19T07:23:16;20.50;1.00
43842;DHT22;29495;49.970;20.842;2023-09-19T07:31:40;20.50;1.00
43842;DHT22;29495;49.970;20.842;2023-09-19T07:34:06;20.60;1.00
43842;DHT22;29495;49.970;20.842;2023-09-19T07:36:34;20.60;1.00
43842;DHT22;29495;49.970;20.842;2023-09-19T07:39:03;20.60;1.00
43842;DHT22;29495;49.970;20.842;2023-09-19T07:41:33;20.70;1.00
43842;DHT22;29495;49.970;20.842;2023-09-19T07:48:57;20.70;1.00
43842;DHT22;29495;49.970;20.842;2023-09-19T07:54:47;20.80;1.00
43842;DHT22;29495;49.970;20.842;2023-09-19T07:57:16;20.60;20.50
43842;DHT22;29495;49.970;20.842;2023-09-19T07:59:54;20.50;62.80
43842;DHT22;29495;49.970;20.842;2023-09-19T08:02:20;20.50;86.10
43842;DHT22;29495;49.970;20.842;2023-09-19T08:04:48;20.50;84.60
43842;DHT22;29495;49.970;20.842;2023-09-19T08:07:15;20.50;93.00
43842;DHT22;29495;49.970;20.842;2023-09-19T08:09:41;20.50;99.90
43842;DHT22;29495;49.970;20.842;2023-09-19T08:12:17;20.40;99.90
43842;DHT22;29495;49.970;20.842;2023-09-19T08:14:49;20.50;99.90
43842;DHT22;29495;49.970;20.842;2023-09-19T08:17:16;20.40;99.90
43842;DHT22;29495;49.970;20.842;2023-09-19T08:19:42;20.40;99.90
43842;DHT22;29495;49.970;20.842;2023-09-19T08:22:15;20.30;99.90
43842;DHT22;29495;49.970;20.842;2023-09-19T08:24:44;20.30;99.90
43842;DHT22;29495;49.970;20.842;2023-09-19T08:27:12;20.20;99.90
43842;DHT22;29495;49.970;20.842;2023-09-19T08:29:42;20.10;99.90
43842;DHT22;29495;49.970;20.842;2023-09-19T08:32:16;20.00;99.90
43842;DHT22;29495;49.970;20.842;2023-09-19T08:46:34;19.80;99.90
43842;DHT22;29495;49.970;20.842;2023-09-19T08:49:05;19.70;99.90
43842;DHT22;29495;49.970;20.842;2023-09-19T08:51:49;19.60;99.90
43842;DHT22;29495;49.970;20.842;2023-09-19T08:54:25;19.70;99.90
43842;DHT22;29495;49.970;20.842;2023-09-19T08:57:00;19.70;99.90
43842;DHT22;29495;49.970;20.842;2023-09-19T08:59:32;19.80;99.90
43842;DHT22;29495;49.970;20.842;2023-09-19T09:02:04;19.80;99.90
43842;DHT22;29495;49.970;20.842;2023-09-19T09:04:30;19.80;99.90
43842;DHT22;29495;49.970;20.842;2023-09-19T09:07:12;19.70;99.90
43842;DHT22;29495;49.970;20.842;2023-09-19T09:09:41;19.70;99.90
43842;DHT22;29495;49.970;20.842;2023-09-19T09:12:14;19.60;99.90
43842;DHT22;29495;49.970;20.842;2023-09-19T09:14:45;19.60;99.90
43842;DHT22;29495;49.970;20.842;2023-09-19T09:17:20;19.40;99.90
43842;DHT22;29495;49.970;20.842;2023-09-19T09:19:47;19.40;99.90
43842;DHT22;29495;49.970;20.842;2023-09-19T09:22:26;19.50;99.90
43842;DHT22;29495;49.970;20.842;2023-09-19T09:24:58;19.40;99.90
43842;DHT22;29495;49.970;20.842;2023-09-19T09:27:24;19.40;99.90
43842;DHT22;29495;49.970;20.842;2023-09-19T09:29:52;19.40;99.90
43842;DHT22;29495;49.970;20.842;2023-09-19T09:32:28;19.30;99.90
43842;DHT22;29495;49.970;20.842;2023-09-19T09:34:59;19.30;99.90
43842;DHT22;29495;49.970;20.842;2023-09-19T09:37:28;19.30;99.90
43842;DHT22;29495;49.970;20.842;2023-09-19T09:39:57;19.30;99.90
43842;DHT22;29495;49.970;20.842;2023-09-19T09:45:19;19.30;99.90
43842;DHT22;29495;49.970;20.842;2023-09-19T09:47:54;19.40;99.90
43842;DHT22;29495;49.970;20.842;2023-09-19T09:50:30;19.30;99.90
43842;DHT22;29495;49.970;20.842;2023-09-19T09:53:23;19.30;99.90
43842;DHT22;29495;49.970;20.842;2023-09-19T09:56:08;19.30;99.90
43842;DHT22;29495;49.970;20.842;2023-09-19T10:04:32;19.30;99.90
43842;DHT22;29495;49.970;20.842;2023-09-19T10:07:02;19.30;99.90
43842;DHT22;29495;49.970;20.842;2023-09-19T10:09:45;19.10;99.90
43842;DHT22;29495;49.970;20.842;2023-09-19T10:12:26;19.00;99.90
43842;DHT22;29495;49.970;20.842;2023-09-19T10:15:18;18.90;99.90
43842;DHT22;29495;49.970;20.842;2023-09-19T10:17:47;18.90;99.90
43842;DHT22;29495;49.970;20.842;2023-09-19T10:20:17;18.90;99.90
43842;DHT22;29495;49.970;20.842;2023-09-19T10:22:53;18.80;99.90
43842;DHT22;29495;49.970;20.842;2023-09-19T10:25:27;18.60;99.90
43842;DHT22;29495;49.970;20.842;2023-09-19T10:27:59;18.50;99.90
43842;DHT22;29495;49.970;20.842;2023-09-19T10:30:42;18.50;99.90
43842;DHT22;29495;49.970;20.842;2023-09-19T10:33:18;18.50;99.90
43842;DHT22;29495;49.970;20.842;2023-09-19T10:35:48;18.40;99.90
43842;DHT22;29495;49.970;20.842;2023-09-19T10:38:20;18.40;99.90
43842;DHT22;29495;49.970;20.842;2023-09-19T10:40:51;18.40;99.90
43842;DHT22;29495;49.970;20.842;2023-09-19T10:43:22;18.40;99.90
43842;DHT22;29495;49.970;20.842;2023-09-19T10:46:06;18.50;99.90
43842;DHT22;29495;49.970;20.842;2023-09-19T10:48:33;18.50;99.90
43842;DHT22;29495;49.970;20.842;2023-09-19T10:51:11;18.50;99.90
43842;DHT22;29495;49.970;20.842;2023-09-19T10:53:55;18.60;99.90
43842;DHT22;29495;49.970;20.842;2023-09-19T10:56:26;18.70;99.90
43842;DHT22;29495;49.970;20.842;2023-09-19T10:59:14;18.80;99.90
43842;DHT22;29495;49.970;20.842;2023-09-19T11:01:51;18.80;99.90
43842;DHT22;29495;49.970;20.842;2023-09-19T11:04:34;18.80;99.90
43842;DHT22;29495;49.970;20.842;2023-09-19T11:07:11;18.70;99.90
43842;DHT22;29495;49.970;20.842;2023-09-19T11:10:02;18.70;99.90
43842;DHT22;29495;49.970;20.842;2023-09-19T11:15:04;18.80;99.90
43842;DHT22;29495;49.970;20.842;2023-09-19T11:17:40;18.90;99.90
43842;DHT22;29495;49.970;20.842;2023-09-19T11:20:22;18.90;99.90
43842;DHT22;29495;49.970;20.842;2023-09-19T11:30:34;18.70;99.90
43842;DHT22;29495;49.970;20.842;2023-09-19T11:41:54;18.70;99.90
43842;DHT22;29495;49.970;20.842;2023-09-19T11:44:33;18.80;99.90
43842;DHT22;29495;49.970;20.842;2023-09-19T11:47:00;18.90;99.90
43842;DHT22;29495;49.970;20.842;2023-09-19T11:49:35;18.80;99.90
43842;DHT22;29495;49.970;20.842;2023-09-19T11:52:38;18.90;99.90
43842;DHT22;29495;49.970;20.842;2023-09-19T11:55:08;18.90;99.90
43842;DHT22;29495;49.970;20.842;2023-09-19T11:57:36;18.90;99.90
43842;DHT22;29495;49.970;20.842;2023-09-19T12:00:05;19.10;99.90
43842;DHT22;29495;49.970;20.842;2023-09-19T12:02:42;19.10;99.90
43842;DHT22;29495;49.970;20.842;2023-09-19T12:05:19;19.00;99.90
43842;DHT22;29495;49.970;20.842;2023-09-19T12:07:57;19.00;99.90
43842;DHT22;29495;49.970;20.842;2023-09-19T12:10:23;19.00;99.90
43842;DHT22;29495;49.970;20.842;2023-09-19T12:12:53;19.10;99.90
43842;DHT22;29495;49.970;20.842;2023-09-19T12:15:28;19.10;99.90
43842;DHT22;29495;49.970;20.842;2023-09-19T12:18:00;19.20;99.90
43842;DHT22;29495;49.970;20.842;2023-09-19T12:20:42;19.10;99.90
43842;DHT22;29495;49.970;20.842;2023-09-19T12:23:17;19.20;99.90
43842;DHT22;29495;49.970;20.842;2023-09-19T12:25:47;19.10;99.90
43842;DHT22;29495;49.970;20.842;2023-09-19T12:28:14;19.10;99.90
43842;DHT22;29495;49.970;20.842;2023-09-19T12:30:42;19.20;99.90
43842;DHT22;29495;49.970;20.842;2023-09-19T12:33:18;19.20;99.90
43842;DHT22;29495;49.970;20.842;2023-09-19T12:35:52;19.20;99.90
43842;DHT22;29495;49.970;20.842;2023-09-19T12:40:52;19.20;99.90
43842;DHT22;29495;49.970;20.842;2023-09-19T12:43:18;19.20;99.90
43842;DHT22;29495;49.970;20.842;2023-09-19T12:45:49;19.20;99.90
43842;DHT22;29495;49.970;20.842;2023-09-19T12:48:23;19.20;99.90
43842;DHT22;29495;49.970;20.842;2023-09-19T12:51:05;19.10;99.90
43842;DHT22;29495;49.970;20.842;2023-09-19T12:53:59;19.10;99.90
43842;DHT22;29495;49.970;20.842;2023-09-19T12:56:25;19.10;99.90
43842;DHT22;29495;49.970;20.842;2023-09-19T12:58:57;19.10;99.90
43842;DHT22;29495;49.970;20.842;2023-09-19T13:01:28;19.00;99.90
43842;DHT22;29495;49.970;20.842;2023-09-19T13:04:24;18.90;99.90
43842;DHT22;29495;49.970;20.842;2023-09-19T13:06:55;18.90;99.90
43842;DHT22;29495;49.970;20.842;2023-09-19T13:09:27;18.90;99.90
43842;DHT22;29495;49.970;20.842;2023-09-19T13:12:34;18.90;99.90
43842;DHT22;29495;49.970;20.842;2023-09-19T13:15:14;19.00;99.90
43842;DHT22;29495;49.970;20.842;2023-09-19T13:17:47;18.90;99.90
43842;DHT22;29495;49.970;20.842;2023-09-19T13:20:24;18.90;99.90
43842;DHT22;29495;49.970;20.842;2023-09-19T13:22:55;18.90;99.90
43842;DHT22;29495;49.970;20.842;2023-09-19T13:25:24;18.90;99.90
43842;DHT22;29495;49.970;20.842;2023-09-19T13:27:52;18.80;99.90
43842;DHT22;29495;49.970;20.842;2023-09-19T13:30:22;18.80;99.90
43842;DHT22;29495;49.970;20.842;2023-09-19T13:32:48;18.70;99.90
43842;DHT22;29495;49.970;20.842;2023-09-19T13:35:15;18.80;99.90
43842;DHT22;29495;49.970;20.842;2023-09-19T13:37:42;18.80;99.90
43842;DHT22;29495;49.970;20.842;2023-09-19T13:40:13;18.80;99.90
43842;DHT22;29495;49.970;20.842;2023-09-19T13:42:40;18.80;99.90
43842;DHT22;29495;49.970;20.842;2023-09-19T13:45:07;18.90;99.90
43842;DHT22;29495;49.970;20.842;2023-09-19T13:47:33;19.00;99.90
43842;DHT22;29495;49.970;20.842;2023-09-19T13:50:02;19.00;99.90
43842;DHT22;29495;49.970;20.842;2023-09-19T13:52:32;19.10;99.90
43842;DHT22;29495;49.970;20.842;2023-09-19T13:55:03;19.10;99.90
43842;DHT22;29495;49.970;20.842;2023-09-19T13:57:34;19.00;99.90
43842;DHT22;29495;49.970;20.842;2023-09-19T14:00:42;18.90;99.90
43842;DHT22;29495;49.970;20.842;2023-09-19T14:03:17;19.10;99.90
43842;DHT22;29495;49.970;20.842;2023-09-19T14:06:10;19.20;99.90
43842;DHT22;29495;49.970;20.842;2023-09-19T14:09:02;19.20;99.90
43842;DHT22;29495;49.970;20.842;2023-09-19T14:11:59;19.20;99.90
43842;DHT22;29495;49.970;20.842;2023-09-19T14:14:28;19.20;99.90
43842;DHT22;29495;49.970;20.842;2023-09-19T14:16:56;19.20;99.90
43842;DHT22;29495;49.970;20.842;2023-09-19T14:19:22;19.30;99.90
43842;DHT22;29495;49.970;20.842;2023-09-19T14:21:48;19.40;99.90
43842;DHT22;29495;49.970;20.842;2023-09-19T14:24:20;19.20;99.90
43842;DHT22;29495;49.970;20.842;2023-09-19T14:26:51;19.30;99.90
43842;DHT22;29495;49.970;20.842;2023-09-19T14:29:17;19.30;99.90
43842;DHT22;29495;49.970;20.842;2023-09-19T14:31:55;19.30;99.90
43842;DHT22;29495;49.970;20.842;2023-09-19T14:34:25;19.30;99.90
43842;DHT22;29495;49.970;20.842;2023-09-19T14:36:52;19.10;99.90
43842;DHT22;29495;49.970;20.842;2023-09-19T14:39:28;19.10;99.90
43842;DHT22;29495;49.970;20.842;2023-09-19T14:45:37;19.20;99.90
43842;DHT22;29495;49.970;20.842;2023-09-19T14:48:12;19.10;99.90
43842;DHT22;29495;49.970;20.842;2023-09-19T14:50:40;19.10;99.90
43842;DHT22;29495;49.970;20.842;2023-09-19T14:53:09;19.20;99.90
43842;DHT22;29495;49.970;20.842;2023-09-19T14:55:40;19.20;99.90
43842;DHT22;29495;49.970;20.842;2023-09-19T14:58:14;19.20;99.90
43842;DHT22;29495;49.970;20.842;2023-09-19T15:00:49;19.10;99.90
43842;DHT22;29495;49.970;20.842;2023-09-19T15:03:49;19.20;99.90
43842;DHT22;29495;49.970;20.842;2023-09-19T15:06:20;19.10;99.90
43842;DHT22;29495;49.970;20.842;2023-09-19T15:09:07;19.10;99.90
43842;DHT22;29495;49.970;20.842;2023-09-19T15:12:29;19.00;99.90
43842;DHT22;29495;49.970;20.842;2023-09-19T15:14:55;19.10;99.90
43842;DHT22;29495;49.970;20.842;2023-09-19T15:17:22;19.10;99.90
43842;DHT22;29495;49.970;20.842;2023-09-19T15:19:50;19.20;99.90
43842;DHT22;29495;49.970;20.842;2023-09-19T15:22:17;19.20;99.90
43842;DHT22;29495;49.970;20.842;2023-09-19T15:24:45;19.10;99.90
43842;DHT22;29495;49.970;20.842;2023-09-19T15:27:11;19.10;99.90
43842;DHT22;29495;49.970;20.842;2023-09-19T15:29:37;19.10;99.90
43842;DHT22;29495;49.970;20.842;2023-09-19T15:32:04;19.10;99.90
43842;DHT22;29495;49.970;20.842;2023-09-19T15:34:30;19.00;99.90
43842;DHT22;29495;49.970;20.842;2023-09-19T15:36:56;19.10;99.90
43842;DHT22;29495;49.970;20.842;2023-09-19T15:39:22;19.00;99.90
43842;DHT22;29495;49.970;20.842;2023-09-19T15:41:48;19.00;99.90
43842;DHT22;29495;49.970;20.842;2023-09-19T15:44:19;19.10;99.90
43842;DHT22;29495;49.970;20.842;2023-09-19T15:46:46;19.00;99.90
43842;DHT22;29495;49.970;20.842;2023-09-19T15:49:12;19.10;99.90
43842;DHT22;29495;49.970;20.842;2023-09-19T15:51:38;19.00;99.90
43842;DHT22;29495;49.970;20.842;2023-09-19T15:54:12;19.00;99.90
43842;DHT22;29495;49.970;20.842;2023-09-19T15:56:40;18.90;99.90
43842;DHT22;29495;49.970;20.842;2023-09-19T15:59:10;19.00;99.90
43842;DHT22;29495;49.970;20.842;2023-09-19T16:01:38;19.00;99.90
43842;DHT22;29495;49.970;20.842;2023-09-19T16:04:06;18.90;99.90
43842;DHT22;29495;49.970;20.842;2023-09-19T16:06:35;18.90;99.90
43842;DHT22;29495;49.970;20.842;2023-09-19T16:09:02;18.90;99.90
43842;DHT22;29495;49.970;20.842;2023-09-19T16:11:31;18.90;99.90
43842;DHT22;29495;49.970;20.842;2023-09-19T16:13:58;18.80;99.90
43842;DHT22;29495;49.970;20.842;2023-09-19T16:16:25;18.80;99.90
43842;DHT22;29495;49.970;20.842;2023-09-19T16:18:53;18.80;99.90
43842;DHT22;29495;49.970;20.842;2023-09-19T16:21:28;18.80;99.90
43842;DHT22;29495;49.970;20.842;2023-09-19T16:23:56;18.80;99.90
43842;DHT22;29495;49.970;20.842;2023-09-19T16:38:28;18.80;99.90
43842;DHT22;29495;49.970;20.842;2023-09-19T16:40:56;18.90;99.90
43842;DHT22;29495;49.970;20.842;2023-09-19T16:43:32;18.90;99.90
43842;DHT22;29495;49.970;20.842;2023-09-19T16:46:06;18.90;99.90
43842;DHT22;29495;49.970;20.842;2023-09-19T16:49:07;18.90;99.90
43842;DHT22;29495;49.970;20.842;2023-09-19T16:51:33;18.90;99.90
43842;DHT22;29495;49.970;20.842;2023-09-19T16:54:05;18.90;99.90
43842;DHT22;29495;49.970;20.842;2023-09-19T16:56:41;18.90;99.90
43842;DHT22;29495;49.970;20.842;2023-09-19T16:59:08;19.00;99.90
43842;DHT22;29495;49.970;20.842;2023-09-19T17:01:38;18.90;99.90
43842;DHT22;29495;49.970;20.842;2023-09-19T17:04:07;18.90;99.90
43842;DHT22;29495;49.970;20.842;2023-09-19T17:06:33;18.90;99.90
43842;DHT22;29495;49.970;20.842;2023-09-19T17:09:00;18.90;99.90
43842;DHT22;29495;49.970;20.842;2023-09-19T17:11:26;19.00;99.90
43842;DHT22;29495;49.970;20.842;2023-09-19T17:14:02;19.10;99.90
43842;DHT22;29495;49.970;20.842;2023-09-19T17:16:29;19.10;99.90
43842;DHT22;29495;49.970;20.842;2023-09-19T17:18:57;19.00;99.90
43842;DHT22;29495;49.970;20.842;2023-09-19T17:21:34;19.10;99.90
43842;DHT22;29495;49.970;20.842;2023-09-19T17:24:00;19.10;99.90
43842;DHT22;29495;49.970;20.842;2023-09-19T17:26:28;19.00;99.90
43842;DHT22;29495;49.970;20.842;2023-09-19T17:28:59;18.90;99.90
43842;DHT22;29495;49.970;20.842;2023-09-19T17:31:26;19.00;99.90
43842;DHT22;29495;49.970;20.842;2023-09-19T17:33:53;18.90;99.90
43842;DHT22;29495;49.970;20.842;2023-09-19T17:36:22;19.00;99.90
43842;DHT22;29495;49.970;20.842;2023-09-19T17:38:50;18.90;99.90
43842;DHT22;29495;49.970;20.842;2023-09-19T17:41:16;18.90;99.90
43842;DHT22;29495;49.970;20.842;2023-09-19T17:43:46;18.80;99.90
43842;DHT22;29495;49.970;20.842;2023-09-19T17:46:18;18.80;99.90
43842;DHT22;29495;49.970;20.842;2023-09-19T17:49:04;18.70;99.90
43842;DHT22;29495;49.970;20.842;2023-09-19T17:51:35;18.60;99.90
43842;DHT22;29495;49.970;20.842;2023-09-19T17:54:04;18.60;99.90
43842;DHT22;29495;49.970;20.842;2023-09-19T17:56:30;18.60;99.90